Time,TemperatureF,DewpointF,PressureIn,WindDirection,WindDirectionDegrees,WindSpeedMPH,WindSpeedGustMPH,Humidity,HourlyPrecipIn,Conditions,Clouds,dailyrainin,SoftwareType,DateUTC
2013-07-06 00:02:00,58.0,48.0,29.92,SSW,200,0.0,0.0,69,0.00,,,0.01,,2013-07-06 08:02:00,
2013-07-06 00:11:00,56.0,47.0,29.93,SSW,200,0.0,0.0,72,0.00,,,0.01,,2013-07-06 08:11:00,
2013-07-06 00:21:00,56.0,47.0,29.93,SSW,200,0.0,0.0,72,0.00,,,0.01,,2013-07-06 08:21:00,
2013-07-06 00:33:00,56.0,47.0,29.93,SSW,200,0.0,0.0,72,0.00,,,0.01,,2013-07-06 08:33:00,
2013-07-06 00:43:00,54.0,46.0,29.93,SSW,201,0.0,0.0,74,0.00,,,0.01,,2013-07-06 08:43:00,
2013-07-06 00:54:00,54.0,46.0,29.93,SSW,201,0.0,0.0,74,0.00,,,0.01,,2013-07-06 08:54:00,
2013-07-06 01:02:00,54.0,46.0,29.93,SSW,201,0.0,0.0,74,0.00,,,0.01,,2013-07-06 09:02:00,
2013-07-06 01:11:00,52.0,45.0,29.93,SSW,201,0.0,0.0,76,0.00,,,0.01,,2013-07-06 09:11:00,
2013-07-06 01:22:00,52.0,45.0,29.93,SSW,201,0.0,0.0,76,0.00,,,0.01,,2013-07-06 09:22:00,
2013-07-06 01:33:00,52.0,45.0,29.93,SSW,201,0.0,0.0,76,0.00,,,0.01,,2013-07-06 09:33:00,
2013-07-06 01:43:00,51.0,44.0,29.93,SSW,200,0.0,0.0,78,0.00,,,0.01,,2013-07-06 09:43:00,
2013-07-06 01:52:00,51.0,44.0,29.93,SSW,200,0.0,0.0,78,0.00,,,0.01,,2013-07-06 09:52:00,
2013-07-06 02:02:00,51.0,44.0,29.93,SSW,200,0.0,0.0,78,0.00,,,0.01,,2013-07-06 10:02:00,
2013-07-06 02:11:00,49.0,43.0,29.93,SSW,201,0.0,0.0,80,0.00,,,0.01,,2013-07-06 10:11:00,
2013-07-06 02:22:00,49.0,43.0,29.93,SSW,201,0.0,0.0,80,0.00,,,0.01,,2013-07-06 10:22:00,
2013-07-06 02:33:00,49.0,43.0,29.93,SSW,201,0.0,0.0,80,0.00,,,0.01,,2013-07-06 10:33:00,
2013-07-06 02:42:00,49.0,43.0,29.93,SSW,201,0.0,0.0,80,0.00,,,0.01,,2013-07-06 10:42:00,
2013-07-06 02:53:00,49.0,44.0,29.93,SSW,201,0.0,0.0,82,0.00,,,0.01,,2013-07-06 10:53:00,
2013-07-06 03:01:00,49.0,44.0,29.93,SSW,201,0.0,0.0,82,0.00,,,0.01,,2013-07-06 11:01:00,
2013-07-06 03:11:00,49.0,43.0,29.92,SSW,201,0.0,0.0,79,0.00,,,0.01,,2013-07-06 11:11:00,
2013-07-06 03:21:00,49.0,43.0,29.92,SSW,201,0.0,0.0,79,0.00,,,0.01,,2013-07-06 11:21:00,
2013-07-06 03:32:00,49.0,43.0,29.92,SSW,201,0.0,0.0,79,0.00,,,0.01,,2013-07-06 11:32:00,
2013-07-06 03:42:00,48.0,42.0,29.92,SSW,201,0.0,0.0,81,0.00,,,0.01,,2013-07-06 11:42:00,
2013-07-06 03:52:00,48.0,42.0,29.92,SSW,201,0.0,0.0,81,0.00,,,0.01,,2013-07-06 11:52:00,
2013-07-06 04:01:00,48.0,42.0,29.92,SSW,201,0.0,0.0,81,0.00,,,0.01,,2013-07-06 12:01:00,
2013-07-06 04:11:00,48.0,43.0,29.91,SSW,201,0.0,0.0,82,0.00,,,0.01,,2013-07-06 12:11:00,
2013-07-06 04:21:00,48.0,43.0,29.91,SSW,201,0.0,0.0,82,0.00,,,0.01,,2013-07-06 12:21:00,
2013-07-06 04:33:00,48.0,43.0,29.91,SSW,201,0.0,0.0,82,0.00,,,0.01,,2013-07-06 12:33:00,
2013-07-06 04:43:00,48.0,42.0,29.91,SSW,201,0.0,0.0,80,0.00,,,0.01,,2013-07-06 12:43:00,
2013-07-06 04:52:00,48.0,42.0,29.91,SSW,201,0.0,0.0,80,0.00,,,0.01,,2013-07-06 12:52:00,
2013-07-06 05:11:00,48.0,42.0,29.91,SSW,201,0.0,0.0,80,0.00,,,0.01,,2013-07-06 13:11:00,
2013-07-06 05:22:00,47.0,42.0,29.91,SSW,200,0.0,0.0,83,0.00,,,0.01,,2013-07-06 13:22:00,
2013-07-06 05:33:00,47.0,42.0,29.91,SSW,200,0.0,0.0,83,0.00,,,0.01,,2013-07-06 13:33:00,
2013-07-06 05:52:00,47.0,41.0,29.91,SSW,200,0.0,0.0,81,0.00,,,0.01,,2013-07-06 13:52:00,
2013-07-06 06:11:00,47.0,41.0,29.91,SSW,200,0.0,0.0,81,0.00,,,0.01,,2013-07-06 14:11:00,
2013-07-06 06:22:00,47.0,42.0,29.91,SSW,200,0.0,0.0,83,0.00,,,0.01,,2013-07-06 14:22:00,
2013-07-06 06:34:00,47.0,42.0,29.91,SSW,200,0.0,0.0,83,0.00,,,0.01,,2013-07-06 14:34:00,
2013-07-06 06:42:00,48.0,44.0,29.90,SSW,200,0.0,0.0,85,0.00,,,0.01,,2013-07-06 14:42:00,
2013-07-06 06:53:00,48.0,44.0,29.90,SSW,200,0.0,0.0,85,0.00,,,0.01,,2013-07-06 14:53:00,
2013-07-06 07:02:00,48.0,44.0,29.90,SSW,200,0.0,0.0,85,0.00,,,0.01,,2013-07-06 15:02:00,
2013-07-06 07:12:00,49.0,44.0,29.90,SSW,201,0.0,0.0,84,0.00,,,0.01,,2013-07-06 15:12:00,
2013-07-06 07:22:00,49.0,44.0,29.90,SSW,201,0.0,0.0,84,0.00,,,0.01,,2013-07-06 15:22:00,
2013-07-06 07:33:00,49.0,44.0,29.90,SSW,201,0.0,0.0,84,0.00,,,0.01,,2013-07-06 15:33:00,
2013-07-06 07:43:00,50.0,45.0,29.90,SSW,201,0.0,0.0,84,0.00,,,0.01,,2013-07-06 15:43:00,
2013-07-06 07:52:00,50.0,45.0,29.90,SSW,201,0.0,0.0,84,0.00,,,0.01,,2013-07-06 15:52:00,
2013-07-06 08:04:00,50.0,45.0,29.90,SSW,201,0.0,0.0,84,0.00,,,0.01,,2013-07-06 16:04:00,
2013-07-06 08:13:00,51.0,46.0,29.89,SSW,201,0.0,0.0,83,0.00,,,0.01,,2013-07-06 16:13:00,
2013-07-06 08:22:00,51.0,46.0,29.89,SSW,201,0.0,0.0,83,0.00,,,0.01,,2013-07-06 16:22:00,
2013-07-06 08:37:00,51.0,46.0,29.89,SSW,201,0.0,0.0,83,0.00,,,0.01,,2013-07-06 16:37:00,
2013-07-06 08:46:00,53.0,46.0,29.88,SSW,200,0.0,0.0,78,0.00,,,0.01,,2013-07-06 16:46:00,
2013-07-06 09:06:00,53.0,46.0,29.88,SSW,200,0.0,0.0,78,0.00,,,0.01,,2013-07-06 17:06:00,
2013-07-06 09:15:00,56.0,49.0,29.88,SSW,201,0.0,2.0,77,0.00,,,0.01,,2013-07-06 17:15:00,
2013-07-06 09:24:00,56.0,49.0,29.88,SSW,201,0.0,2.0,77,0.00,,,0.01,,2013-07-06 17:24:00,
2013-07-06 09:38:00,56.0,49.0,29.88,SSW,201,0.0,2.0,77,0.00,,,0.01,,2013-07-06 17:38:00,
2013-07-06 09:45:00,58.0,49.0,29.88,SSW,200,0.0,2.0,72,0.00,,,0.01,,2013-07-06 17:45:00,
2013-07-06 10:05:00,58.0,49.0,29.88,SSW,200,0.0,2.0,72,0.00,,,0.01,,2013-07-06 18:05:00,
2013-07-06 10:15:00,61.0,50.0,29.88,SW,217,0.0,3.0,66,0.00,,,0.01,,2013-07-06 18:15:00,
2013-07-06 10:24:00,61.0,50.0,29.88,SW,217,0.0,3.0,66,0.00,,,0.01,,2013-07-06 18:24:00,
2013-07-06 10:47:00,62.0,47.0,29.87,SW,217,1.0,3.0,58,0.00,,,0.01,,2013-07-06 18:47:00,
2013-07-06 10:55:00,62.0,47.0,29.87,SW,217,1.0,3.0,58,0.00,,,0.01,,2013-07-06 18:55:00,
2013-07-06 11:06:00,62.0,47.0,29.87,SW,217,1.0,3.0,58,0.00,,,0.01,,2013-07-06 19:06:00,
2013-07-06 11:14:00,64.0,49.0,29.86,SSW,211,0.0,3.0,58,0.00,,,0.01,,2013-07-06 19:14:00,
2013-07-06 11:23:00,64.0,49.0,29.86,SSW,211,0.0,3.0,58,0.00,,,0.01,,2013-07-06 19:23:00,
2013-07-06 11:36:00,64.0,49.0,29.86,SSW,211,0.0,3.0,58,0.00,,,0.01,,2013-07-06 19:36:00,
2013-07-06 11:46:00,67.0,46.0,29.86,West,259,1.0,6.0,47,0.00,,,0.01,,2013-07-06 19:46:00,
2013-07-06 11:54:00,67.0,46.0,29.86,West,259,1.0,6.0,47,0.00,,,0.01,,2013-07-06 19:54:00,
2013-07-06 12:15:00,69.0,46.0,29.86,SSW,195,0.0,5.0,44,0.00,,,0.01,,2013-07-06 20:15:00,
2013-07-06 12:38:00,69.0,46.0,29.86,SSW,195,0.0,5.0,44,0.00,,,0.01,,2013-07-06 20:38:00,
2013-07-06 12:47:00,69.0,46.0,29.86,SSW,195,0.0,5.0,44,0.00,,,0.01,,2013-07-06 20:47:00,
2013-07-06 13:27:00,69.0,46.0,29.84,South,180,0.0,2.0,44,0.00,,,0.01,,2013-07-06 21:27:00,
2013-07-06 13:54:00,72.0,46.0,29.83,South,178,0.0,2.0,40,0.00,,,0.01,,2013-07-06 21:54:00,
2013-07-06 14:15:00,73.0,44.0,29.83,South,191,2.0,5.0,36,0.00,,,0.01,,2013-07-06 22:15:00,
2013-07-06 14:23:00,73.0,44.0,29.83,South,191,2.0,5.0,36,0.00,,,0.01,,2013-07-06 22:23:00,
2013-07-06 14:37:00,73.0,44.0,29.83,South,191,2.0,5.0,36,0.00,,,0.01,,2013-07-06 22:37:00,
2013-07-06 14:46:00,74.0,44.0,29.82,SW,229,1.0,4.0,34,0.00,,,0.01,,2013-07-06 22:46:00,
2013-07-06 14:54:00,74.0,44.0,29.82,SW,229,1.0,4.0,34,0.00,,,0.01,,2013-07-06 22:54:00,
2013-07-06 15:38:00,74.0,44.0,29.81,SSW,198,2.0,4.0,34,0.00,,,0.01,,2013-07-06 23:38:00,
2013-07-06 15:55:00,74.0,45.0,29.81,SSE,168,3.0,6.0,35,0.00,,,0.01,,2013-07-06 23:55:00,
2013-07-06 16:07:00,74.0,45.0,29.81,SSE,168,3.0,6.0,35,0.00,,,0.01,,2013-07-07 00:07:00,
2013-07-06 16:37:00,74.0,45.0,29.80,WSW,242,2.0,5.0,36,0.00,,,0.01,,2013-07-07 00:37:00,
2013-07-06 16:46:00,74.0,45.0,29.80,WSW,242,2.0,5.0,36,0.00,,,0.01,,2013-07-07 00:46:00,
2013-07-06 16:54:00,74.0,45.0,29.80,WSW,242,2.0,5.0,36,0.00,,,0.01,,2013-07-07 00:54:00,
2013-07-06 18:04:00,74.0,45.0,29.76,SSW,192,1.0,6.0,35,0.00,,,0.00,,2013-07-07 02:04:00,
2013-07-06 18:32:00,74.0,45.0,29.76,SSW,192,1.0,6.0,35,0.00,,,0.00,,2013-07-07 02:32:00,
2013-07-06 22:43:00,65.0,50.0,29.71,SSW,195,0.0,0.0,58,0.00,,,0.00,,2013-07-07 06:43:00,
2013-07-06 22:52:00,65.0,50.0,29.71,SSW,195,0.0,0.0,58,0.00,,,0.00,,2013-07-07 06:52:00,
2013-07-06 23:01:00,65.0,50.0,29.71,SSW,195,0.0,0.0,58,0.00,,,0.00,,2013-07-07 07:01:00,
2013-07-06 23:11:00,64.0,50.0,29.71,SSW,195,0.0,0.0,60,0.00,,,0.00,,2013-07-07 07:11:00,
2013-07-06 23:22:00,64.0,50.0,29.71,SSW,195,0.0,0.0,60,0.00,,,0.00,,2013-07-07 07:22:00,
2013-07-06 23:33:00,64.0,50.0,29.71,SSW,195,0.0,0.0,60,0.00,,,0.00,,2013-07-07 07:33:00,
2013-07-06 23:44:00,64.0,50.0,29.71,SSW,195,0.0,0.0,61,0.00,,,0.00,,2013-07-07 07:44:00,
2013-07-06 23:53:00,64.0,50.0,29.71,SSW,195,0.0,0.0,61,0.00,,,0.00,,2013-07-07 07:53:00,